sensor_id;sensor_type;location;lat;lon;timestamp;temperature;humidity
78571;SHT31;67861;51.966;5.672;2023-11-19T00:00:57;15.7;77.1
78571;SHT31;67861;51.966;5.672;2023-11-19T00:03:26;15.8;77.0
78571;SHT31;67861;51.966;5.672;2023-11-19T00:05:55;15.8;76.8
78571;SHT31;67861;51.966;5.672;2023-11-19T00:08:23;15.8;76.9
78571;SHT31;67861;51.966;5.672;2023-11-19T00:10:53;15.8;76.7
78571;SHT31;67861;51.966;5.672;2023-11-19T00:13:22;15.8;76.7
78571;SHT31;67861;51.966;5.672;2023-11-19T00:15:52;15.9;76.7
78571;SHT31;67861;51.966;5.672;2023-11-19T00:18:21;15.9;76.5
78571;SHT31;67861;51.966;5.672;2023-11-19T00:20:49;15.9;76.4
78571;SHT31;67861;51.966;5.672;2023-11-19T00:23:17;15.9;76.4
78571;SHT31;67861;51.966;5.672;2023-11-19T00:25:46;15.9;76.3
78571;SHT31;67861;51.966;5.672;2023-11-19T00:28:14;15.9;76.2
78571;SHT31;67861;51.966;5.672;2023-11-19T00:30:43;15.9;76.0
78571;SHT31;67861;51.966;5.672;2023-11-19T00:33:11;16.0;76.0
78571;SHT31;67861;51.966;5.672;2023-11-19T00:35:40;16.0;75.9
78571;SHT31;67861;51.966;5.672;2023-11-19T00:38:08;16.0;75.7
78571;SHT31;67861;51.966;5.672;2023-11-19T00:40:36;16.0;75.7
78571;SHT31;67861;51.966;5.672;2023-11-19T00:43:05;16.0;75.7
78571;SHT31;67861;51.966;5.672;2023-11-19T00:45:33;16.0;75.4
78571;SHT31;67861;51.966;5.672;2023-11-19T00:48:02;16.0;75.5
78571;SHT31;67861;51.966;5.672;2023-11-19T00:50:30;16.0;75.3
78571;SHT31;67861;51.966;5.672;2023-11-19T00:52:58;16.1;75.3
78571;SHT31;67861;51.966;5.672;2023-11-19T00:55:29;16.1;75.2
78571;SHT31;67861;51.966;5.672;2023-11-19T00:57:58;16.1;75.1
78571;SHT31;67861;51.966;5.672;2023-11-19T01:00:26;16.1;75.0
78571;SHT31;67861;51.966;5.672;2023-11-19T01:02:55;16.1;74.8
78571;SHT31;67861;51.966;5.672;2023-11-19T01:05:23;16.1;74.8
78571;SHT31;67861;51.966;5.672;2023-11-19T01:07:52;16.1;74.7
78571;SHT31;67861;51.966;5.672;2023-11-19T01:10:21;16.1;74.6
78571;SHT31;67861;51.966;5.672;2023-11-19T01:12:49;16.1;74.6
78571;SHT31;67861;51.966;5.672;2023-11-19T01:15:18;16.1;74.4
78571;SHT31;67861;51.966;5.672;2023-11-19T01:17:47;16.1;74.5
78571;SHT31;67861;51.966;5.672;2023-11-19T01:20:15;16.1;74.4
78571;SHT31;67861;51.966;5.672;2023-11-19T01:22:46;16.1;74.3
78571;SHT31;67861;51.966;5.672;2023-11-19T01:25:15;16.1;74.1
78571;SHT31;67861;51.966;5.672;2023-11-19T01:27:43;16.1;74.1
78571;SHT31;67861;51.966;5.672;2023-11-19T01:30:12;16.1;74.0
78571;SHT31;67861;51.966;5.672;2023-11-19T01:32:41;16.1;74.0
78571;SHT31;67861;51.966;5.672;2023-11-19T01:35:10;16.1;73.8
78571;SHT31;67861;51.966;5.672;2023-11-19T01:37:38;16.1;73.8
78571;SHT31;67861;51.966;5.672;2023-11-19T01:40:07;16.1;73.8
78571;SHT31;67861;51.966;5.672;2023-11-19T01:42:38;16.1;73.6
78571;SHT31;67861;51.966;5.672;2023-11-19T01:45:07;16.1;73.5
78571;SHT31;67861;51.966;5.672;2023-11-19T01:47:37;16.2;73.6
78571;SHT31;67861;51.966;5.672;2023-11-19T01:50:08;16.2;73.6
78571;SHT31;67861;51.966;5.672;2023-11-19T01:52:39;16.2;73.5
78571;SHT31;67861;51.966;5.672;2023-11-19T01:55:10;16.2;73.4
78571;SHT31;67861;51.966;5.672;2023-11-19T01:57:40;16.2;73.3
78571;SHT31;67861;51.966;5.672;2023-11-19T02:00:10;16.2;73.3
78571;SHT31;67861;51.966;5.672;2023-11-19T02:02:40;16.2;73.3
78571;SHT31;67861;51.966;5.672;2023-11-19T02:05:10;16.2;72.9
78571;SHT31;67861;51.966;5.672;2023-11-19T02:07:39;16.2;72.8
78571;SHT31;67861;51.966;5.672;2023-11-19T02:10:09;16.2;72.7
78571;SHT31;67861;51.966;5.672;2023-11-19T02:12:40;16.2;72.2
78571;SHT31;67861;51.966;5.672;2023-11-19T02:15:10;16.2;72.2
78571;SHT31;67861;51.966;5.672;2023-11-19T02:17:39;16.2;72.2
78571;SHT31;67861;51.966;5.672;2023-11-19T02:20:08;16.2;72.1
78571;SHT31;67861;51.966;5.672;2023-11-19T02:22:38;16.1;72.1
78571;SHT31;67861;51.966;5.672;2023-11-19T02:25:09;16.1;72.0
78571;SHT31;67861;51.966;5.672;2023-11-19T02:27:47;16.1;72.0
78571;SHT31;67861;51.966;5.672;2023-11-19T02:30:18;16.1;71.8
78571;SHT31;67861;51.966;5.672;2023-11-19T02:32:46;16.1;71.8
78571;SHT31;67861;51.966;5.672;2023-11-19T02:35:15;16.1;71.5
78571;SHT31;67861;51.966;5.672;2023-11-19T02:37:45;16.1;71.2
78571;SHT31;67861;51.966;5.672;2023-11-19T02:40:14;16.1;71.3
78571;SHT31;67861;51.966;5.672;2023-11-19T02:42:43;16.1;71.1
78571;SHT31;67861;51.966;5.672;2023-11-19T02:45:12;16.1;70.8
78571;SHT31;67861;51.966;5.672;2023-11-19T02:47:41;16.0;70.8
78571;SHT31;67861;51.966;5.672;2023-11-19T02:50:11;16.0;70.8
78571;SHT31;67861;51.966;5.672;2023-11-19T02:52:41;16.0;70.7
78571;SHT31;67861;51.966;5.672;2023-11-19T02:55:11;16.0;70.6
78571;SHT31;67861;51.966;5.672;2023-11-19T02:57:41;16.0;70.6
78571;SHT31;67861;51.966;5.672;2023-11-19T03:00:14;15.9;70.4
78571;SHT31;67861;51.966;5.672;2023-11-19T03:02:44;15.9;70.3
78571;SHT31;67861;51.966;5.672;2023-11-19T03:05:15;15.9;70.1
78571;SHT31;67861;51.966;5.672;2023-11-19T03:07:44;15.9;70.2
78571;SHT31;67861;51.966;5.672;2023-11-19T03:10:13;15.8;70.3
78571;SHT31;67861;51.966;5.672;2023-11-19T03:12:43;15.8;70.1
78571;SHT31;67861;51.966;5.672;2023-11-19T03:15:13;15.8;70.2
78571;SHT31;67861;51.966;5.672;2023-11-19T03:17:42;15.8;70.0
78571;SHT31;67861;51.966;5.672;2023-11-19T03:20:12;15.8;70.0
78571;SHT31;67861;51.966;5.672;2023-11-19T03:22:43;15.7;70.2
78571;SHT31;67861;51.966;5.672;2023-11-19T03:25:12;15.7;70.1
78571;SHT31;67861;51.966;5.672;2023-11-19T03:27:40;15.7;69.9
78571;SHT31;67861;51.966;5.672;2023-11-19T03:30:10;15.6;69.7
78571;SHT31;67861;51.966;5.672;2023-11-19T03:32:39;15.6;69.8
78571;SHT31;67861;51.966;5.672;2023-11-19T03:35:07;15.6;69.9
78571;SHT31;67861;51.966;5.672;2023-11-19T03:37:40;15.6;69.9
78571;SHT31;67861;51.966;5.672;2023-11-19T03:40:10;15.5;69.8
78571;SHT31;67861;51.966;5.672;2023-11-19T03:42:39;15.5;69.8
78571;SHT31;67861;51.966;5.672;2023-11-19T03:45:08;15.5;69.8
78571;SHT31;67861;51.966;5.672;2023-11-19T03:47:36;15.4;69.8
78571;SHT31;67861;51.966;5.672;2023-11-19T03:50:06;15.4;69.8
78571;SHT31;67861;51.966;5.672;2023-11-19T03:52:35;15.4;69.7
78571;SHT31;67861;51.966;5.672;2023-11-19T03:55:04;15.4;69.6
78571;SHT31;67861;51.966;5.672;2023-11-19T03:57:34;15.3;69.8
78571;SHT31;67861;51.966;5.672;2023-11-19T04:00:03;15.3;69.8
78571;SHT31;67861;51.966;5.672;2023-11-19T04:02:35;15.3;69.6
78571;SHT31;67861;51.966;5.672;2023-11-19T04:05:03;15.3;69.6
78571;SHT31;67861;51.966;5.672;2023-11-19T04:07:33;15.3;69.6
78571;SHT31;67861;51.966;5.672;2023-11-19T04:10:01;15.2;69.4
78571;SHT31;67861;51.966;5.672;2023-11-19T04:12:30;15.2;69.4
78571;SHT31;67861;51.966;5.672;2023-11-19T04:14:58;15.2;69.4
78571;SHT31;67861;51.966;5.672;2023-11-19T04:17:27;15.2;69.3
78571;SHT31;67861;51.966;5.672;2023-11-19T04:19:55;15.1;69.2
78571;SHT31;67861;51.966;5.672;2023-11-19T04:22:24;15.1;69.2
78571;SHT31;67861;51.966;5.672;2023-11-19T04:24:52;15.1;69.2
78571;SHT31;67861;51.966;5.672;2023-11-19T04:27:21;15.0;69.2
78571;SHT31;67861;51.966;5.672;2023-11-19T04:29:50;15.0;69.2
78571;SHT31;67861;51.966;5.672;2023-11-19T04:32:18;15.0;69.3
78571;SHT31;67861;51.966;5.672;2023-11-19T04:34:47;14.9;69.3
78571;SHT31;67861;51.966;5.672;2023-11-19T04:37:15;14.9;69.4
78571;SHT31;67861;51.966;5.672;2023-11-19T04:39:46;14.9;69.4
78571;SHT31;67861;51.966;5.672;2023-11-19T04:42:14;14.8;69.3
78571;SHT31;67861;51.966;5.672;2023-11-19T04:44:44;14.8;69.4
78571;SHT31;67861;51.966;5.672;2023-11-19T04:47:13;14.8;69.5
78571;SHT31;67861;51.966;5.672;2023-11-19T04:49:42;14.8;69.4
78571;SHT31;67861;51.966;5.672;2023-11-19T04:52:11;14.8;69.3
78571;SHT31;67861;51.966;5.672;2023-11-19T04:54:43;14.7;69.2
78571;SHT31;67861;51.966;5.672;2023-11-19T04:57:12;14.7;69.2
78571;SHT31;67861;51.966;5.672;2023-11-19T04:59:40;14.7;69.3
78571;SHT31;67861;51.966;5.672;2023-11-19T05:02:10;14.7;69.1
78571;SHT31;67861;51.966;5.672;2023-11-19T05:04:42;14.7;69.1
78571;SHT31;67861;51.966;5.672;2023-11-19T05:07:13;14.7;69.2
78571;SHT31;67861;51.966;5.672;2023-11-19T05:09:41;14.6;69.3
78571;SHT31;67861;51.966;5.672;2023-11-19T05:12:09;14.6;69.2
78571;SHT31;67861;51.966;5.672;2023-11-19T05:14:38;14.6;69.4
78571;SHT31;67861;51.966;5.672;2023-11-19T05:17:09;14.6;69.6
78571;SHT31;67861;51.966;5.672;2023-11-19T05:19:39;14.6;69.6
78571;SHT31;67861;51.966;5.672;2023-11-19T05:22:08;14.6;69.7
78571;SHT31;67861;51.966;5.672;2023-11-19T05:24:36;14.6;69.8
78571;SHT31;67861;51.966;5.672;2023-11-19T05:27:06;14.6;69.7
78571;SHT31;67861;51.966;5.672;2023-11-19T05:29:37;14.6;69.7
78571;SHT31;67861;51.966;5.672;2023-11-19T05:32:07;14.5;69.4
78571;SHT31;67861;51.966;5.672;2023-11-19T05:34:36;14.5;69.7
78571;SHT31;67861;51.966;5.672;2023-11-19T05:37:04;14.5;69.4
78571;SHT31;67861;51.966;5.672;2023-11-19T05:39:36;14.5;69.6
78571;SHT31;67861;51.966;5.672;2023-11-19T05:42:04;14.5;69.8
78571;SHT31;67861;51.966;5.672;2023-11-19T05:44:33;14.5;69.9
78571;SHT31;67861;51.966;5.672;2023-11-19T05:47:01;14.5;69.8
78571;SHT31;67861;51.966;5.672;2023-11-19T05:49:30;14.5;69.5
78571;SHT31;67861;51.966;5.672;2023-11-19T05:51:59;14.5;69.4
78571;SHT31;67861;51.966;5.672;2023-11-19T05:54:29;14.5;69.5
78571;SHT31;67861;51.966;5.672;2023-11-19T05:57:00;14.5;69.2
78571;SHT31;67861;51.966;5.672;2023-11-19T05:59:28;14.5;69.3
78571;SHT31;67861;51.966;5.672;2023-11-19T06:01:57;14.5;69.2
78571;SHT31;67861;51.966;5.672;2023-11-19T06:04:26;14.5;69.4
78571;SHT31;67861;51.966;5.672;2023-11-19T06:06:55;14.5;69.4
78571;SHT31;67861;51.966;5.672;2023-11-19T06:09:23;14.5;69.5
78571;SHT31;67861;51.966;5.672;2023-11-19T06:11:52;14.4;69.6
78571;SHT31;67861;51.966;5.672;2023-11-19T06:14:21;14.4;69.6
78571;SHT31;67861;51.966;5.672;2023-11-19T06:16:50;14.4;69.5
78571;SHT31;67861;51.966;5.672;2023-11-19T06:19:19;14.4;69.4
78571;SHT31;67861;51.966;5.672;2023-11-19T06:21:48;14.4;69.4
78571;SHT31;67861;51.966;5.672;2023-11-19T06:24:16;14.4;69.5
78571;SHT31;67861;51.966;5.672;2023-11-19T06:26:45;14.4;69.5
78571;SHT31;67861;51.966;5.672;2023-11-19T06:29:14;14.4;69.4
78571;SHT31;67861;51.966;5.672;2023-11-19T06:31:45;14.4;69.4
78571;SHT31;67861;51.966;5.672;2023-11-19T06:34:15;14.4;69.6
78571;SHT31;67861;51.966;5.672;2023-11-19T06:36:43;14.4;69.4
78571;SHT31;67861;51.966;5.672;2023-11-19T06:39:12;14.3;69.5
78571;SHT31;67861;51.966;5.672;2023-11-19T06:41:44;14.3;69.6
78571;SHT31;67861;51.966;5.672;2023-11-19T06:44:13;14.3;69.6
78571;SHT31;67861;51.966;5.672;2023-11-19T06:46:41;14.3;69.7
78571;SHT31;67861;51.966;5.672;2023-11-19T06:49:10;14.3;69.7
78571;SHT31;67861;51.966;5.672;2023-11-19T06:51:42;14.3;69.8
78571;SHT31;67861;51.966;5.672;2023-11-19T06:54:12;14.3;69.7
78571;SHT31;67861;51.966;5.672;2023-11-19T06:56:41;14.3;69.8
78571;SHT31;67861;51.966;5.672;2023-11-19T06:59:09;14.3;69.7
78571;SHT31;67861;51.966;5.672;2023-11-19T07:01:40;14.3;69.5
78571;SHT31;67861;51.966;5.672;2023-11-19T07:04:10;14.3;69.6
78571;SHT31;67861;51.966;5.672;2023-11-19T07:06:39;14.3;69.5
78571;SHT31;67861;51.966;5.672;2023-11-19T07:09:09;14.3;69.6
78571;SHT31;67861;51.966;5.672;2023-11-19T07:11:38;14.3;69.8
78571;SHT31;67861;51.966;5.672;2023-11-19T07:14:07;14.3;69.7
78571;SHT31;67861;51.966;5.672;2023-11-19T07:16:37;14.3;69.5
78571;SHT31;67861;51.966;5.672;2023-11-19T07:19:06;14.3;69.4
78571;SHT31;67861;51.966;5.672;2023-11-19T07:21:35;14.3;69.6
78571;SHT31;67861;51.966;5.672;2023-11-19T07:24:06;14.3;69.5
78571;SHT31;67861;51.966;5.672;2023-11-19T07:26:35;14.3;69.3
78571;SHT31;67861;51.966;5.672;2023-11-19T07:29:04;14.3;69.3
78571;SHT31;67861;51.966;5.672;2023-11-19T07:31:34;14.3;69.6
78571;SHT31;67861;51.966;5.672;2023-11-19T07:34:03;14.3;69.5
78571;SHT31;67861;51.966;5.672;2023-11-19T07:36:32;14.3;69.9
78571;SHT31;67861;51.966;5.672;2023-11-19T07:39:03;14.3;69.7
78571;SHT31;67861;51.966;5.672;2023-11-19T07:41:31;14.3;69.8
78571;SHT31;67861;51.966;5.672;2023-11-19T07:44:00;14.3;69.8
78571;SHT31;67861;51.966;5.672;2023-11-19T07:46:30;14.3;70.0
78571;SHT31;67861;51.966;5.672;2023-11-19T07:48:59;14.3;69.8
78571;SHT31;67861;51.966;5.672;2023-11-19T07:51:31;14.3;69.9
78571;SHT31;67861;51.966;5.672;2023-11-19T07:53:59;14.3;70.3
78571;SHT31;67861;51.966;5.672;2023-11-19T07:56:28;14.3;70.1
78571;SHT31;67861;51.966;5.672;2023-11-19T07:58:56;14.3;70.1
78571;SHT31;67861;51.966;5.672;2023-11-19T08:01:25;14.3;69.9
78571;SHT31;67861;51.966;5.672;2023-11-19T08:03:53;14.3;70.0
78571;SHT31;67861;51.966;5.672;2023-11-19T08:06:22;14.3;70.0
78571;SHT31;67861;51.966;5.672;2023-11-19T08:08:51;14.4;70.0
78571;SHT31;67861;51.966;5.672;2023-11-19T08:11:20;14.4;70.0
78571;SHT31;67861;51.966;5.672;2023-11-19T08:13:48;14.4;69.8
78571;SHT31;67861;51.966;5.672;2023-11-19T08:16:18;14.4;69.8
78571;SHT31;67861;51.966;5.672;2023-11-19T08:18:47;14.4;69.7
78571;SHT31;67861;51.966;5.672;2023-11-19T08:21:15;14.4;69.5
78571;SHT31;67861;51.966;5.672;2023-11-19T08:23:44;14.5;69.5
78571;SHT31;67861;51.966;5.672;2023-11-19T08:26:14;14.5;69.6
78571;SHT31;67861;51.966;5.672;2023-11-19T08:28:43;14.5;70.1
78571;SHT31;67861;51.966;5.672;2023-11-19T08:31:12;14.5;69.9
78571;SHT31;67861;51.966;5.672;2023-11-19T08:33:40;14.5;69.3
78571;SHT31;67861;51.966;5.672;2023-11-19T08:36:18;14.5;68.9
78571;SHT31;67861;51.966;5.672;2023-11-19T08:38:47;14.6;69.0
78571;SHT31;67861;51.966;5.672;2023-11-19T08:41:18;14.6;69.4
78571;SHT31;67861;51.966;5.672;2023-11-19T08:43:46;14.6;69.5
78571;SHT31;67861;51.966;5.672;2023-11-19T08:46:15;14.6;69.4
78571;SHT31;67861;51.966;5.672;2023-11-19T08:48:43;14.6;69.0
78571;SHT31;67861;51.966;5.672;2023-11-19T08:51:12;14.7;68.8
78571;SHT31;67861;51.966;5.672;2023-11-19T08:53:41;14.7;68.8
78571;SHT31;67861;51.966;5.672;2023-11-19T08:56:11;14.7;68.6
78571;SHT31;67861;51.966;5.672;2023-11-19T08:58:40;14.7;68.7
78571;SHT31;67861;51.966;5.672;2023-11-19T09:01:09;14.7;68.2
78571;SHT31;67861;51.966;5.672;2023-11-19T09:03:38;14.8;68.5
78571;SHT31;67861;51.966;5.672;2023-11-19T09:06:07;14.8;68.3
78571;SHT31;67861;51.966;5.672;2023-11-19T09:08:35;14.8;68.1
78571;SHT31;67861;51.966;5.672;2023-11-19T09:11:08;14.8;67.9
78571;SHT31;67861;51.966;5.672;2023-11-19T09:13:38;14.8;67.9
78571;SHT31;67861;51.966;5.672;2023-11-19T09:16:07;14.8;67.9
78571;SHT31;67861;51.966;5.672;2023-11-19T09:18:35;14.9;68.1
78571;SHT31;67861;51.966;5.672;2023-11-19T09:21:04;14.9;67.8
78571;SHT31;67861;51.966;5.672;2023-11-19T09:23:33;14.9;67.8
78571;SHT31;67861;51.966;5.672;2023-11-19T09:26:06;14.9;67.5
78571;SHT31;67861;51.966;5.672;2023-11-19T09:28:36;14.9;67.4
78571;SHT31;67861;51.966;5.672;2023-11-19T09:31:14;15.0;67.7
78571;SHT31;67861;51.966;5.672;2023-11-19T09:33:44;15.0;67.6
78571;SHT31;67861;51.966;5.672;2023-11-19T09:36:14;15.0;67.6
78571;SHT31;67861;51.966;5.672;2023-11-19T09:38:43;15.0;67.1
78571;SHT31;67861;51.966;5.672;2023-11-19T09:41:12;15.1;67.3
78571;SHT31;67861;51.966;5.672;2023-11-19T09:43:41;15.1;67.7
78571;SHT31;67861;51.966;5.672;2023-11-19T09:46:10;15.1;67.8
78571;SHT31;67861;51.966;5.672;2023-11-19T09:48:40;15.2;67.4
78571;SHT31;67861;51.966;5.672;2023-11-19T09:51:09;15.2;67.3
78571;SHT31;67861;51.966;5.672;2023-11-19T09:53:39;15.2;67.4
78571;SHT31;67861;51.966;5.672;2023-11-19T09:56:09;15.3;67.2
78571;SHT31;67861;51.966;5.672;2023-11-19T09:58:39;15.3;67.0
78571;SHT31;67861;51.966;5.672;2023-11-19T10:01:08;15.3;66.5
78571;SHT31;67861;51.966;5.672;2023-11-19T10:03:39;15.4;66.6
78571;SHT31;67861;51.966;5.672;2023-11-19T10:06:10;15.4;66.5
78571;SHT31;67861;51.966;5.672;2023-11-19T10:08:39;15.4;66.3
78571;SHT31;67861;51.966;5.672;2023-11-19T10:11:09;15.4;66.1
78571;SHT31;67861;51.966;5.672;2023-11-19T10:13:43;15.5;65.6
78571;SHT31;67861;51.966;5.672;2023-11-19T10:16:14;15.5;65.7
78571;SHT31;67861;51.966;5.672;2023-11-19T10:18:45;15.5;65.2
78571;SHT31;67861;51.966;5.672;2023-11-19T10:21:14;15.5;65.7
78571;SHT31;67861;51.966;5.672;2023-11-19T10:23:51;15.5;65.6
78571;SHT31;67861;51.966;5.672;2023-11-19T10:26:21;15.5;65.3
78571;SHT31;67861;51.966;5.672;2023-11-19T10:28:50;15.6;65.6
78571;SHT31;67861;51.966;5.672;2023-11-19T10:31:20;15.6;65.4
78571;SHT31;67861;51.966;5.672;2023-11-19T10:33:51;15.6;65.3
78571;SHT31;67861;51.966;5.672;2023-11-19T10:36:22;15.6;65.3
78571;SHT31;67861;51.966;5.672;2023-11-19T10:38:54;15.6;65.2
78571;SHT31;67861;51.966;5.672;2023-11-19T10:41:29;15.6;65.2
78571;SHT31;67861;51.966;5.672;2023-11-19T10:43:58;15.6;65.2
78571;SHT31;67861;51.966;5.672;2023-11-19T10:46:38;15.7;64.6
78571;SHT31;67861;51.966;5.672;2023-11-19T10:49:08;15.7;64.8
78571;SHT31;67861;51.966;5.672;2023-11-19T10:51:45;15.7;64.8
78571;SHT31;67861;51.966;5.672;2023-11-19T10:54:18;15.8;64.7
78571;SHT31;67861;51.966;5.672;2023-11-19T10:56:55;15.8;64.1
78571;SHT31;67861;51.966;5.672;2023-11-19T10:59:29;15.8;64.5
78571;SHT31;67861;51.966;5.672;2023-11-19T11:02:02;15.9;64.3
78571;SHT31;67861;51.966;5.672;2023-11-19T11:04:33;15.9;64.0
78571;SHT31;67861;51.966;5.672;2023-11-19T11:07:09;15.9;64.3
78571;SHT31;67861;51.966;5.672;2023-11-19T11:09:41;16.0;64.0
78571;SHT31;67861;51.966;5.672;2023-11-19T11:12:10;16.0;63.4
78571;SHT31;67861;51.966;5.672;2023-11-19T11:14:40;16.0;63.4
78571;SHT31;67861;51.966;5.672;2023-11-19T11:17:12;16.0;63.1
78571;SHT31;67861;51.966;5.672;2023-11-19T11:19:45;16.1;63.0
78571;SHT31;67861;51.966;5.672;2023-11-19T11:22:16;16.1;63.1
78571;SHT31;67861;51.966;5.672;2023-11-19T11:25:39;16.1;63.4
78571;SHT31;67861;51.966;5.672;2023-11-19T11:28:20;16.1;63.5
78571;SHT31;67861;51.966;5.672;2023-11-19T11:30:59;16.1;63.2
78571;SHT31;67861;51.966;5.672;2023-11-19T11:33:44;16.1;63.3
78571;SHT31;67861;51.966;5.672;2023-11-19T11:36:22;16.2;63.0
78571;SHT31;67861;51.966;5.672;2023-11-19T11:38:51;16.2;63.3
78571;SHT31;67861;51.966;5.672;2023-11-19T11:41:21;16.2;63.4
78571;SHT31;67861;51.966;5.672;2023-11-19T11:43:53;16.2;63.5
78571;SHT31;67861;51.966;5.672;2023-11-19T11:48:40;16.2;63.7
78571;SHT31;67861;51.966;5.672;2023-11-19T11:51:13;16.3;63.3
78571;SHT31;67861;51.966;5.672;2023-11-19T11:53:42;16.3;62.6
78571;SHT31;67861;51.966;5.672;2023-11-19T11:56:11;16.3;62.8
78571;SHT31;67861;51.966;5.672;2023-11-19T11:58:42;16.3;62.3
78571;SHT31;67861;51.966;5.672;2023-11-19T12:01:15;16.3;62.5
78571;SHT31;67861;51.966;5.672;2023-11-19T12:03:47;16.3;62.2
78571;SHT31;67861;51.966;5.672;2023-11-19T12:06:22;16.4;62.3
78571;SHT31;67861;51.966;5.672;2023-11-19T12:08:51;16.4;61.9
78571;SHT31;67861;51.966;5.672;2023-11-19T12:11:20;16.4;61.5
78571;SHT31;67861;51.966;5.672;2023-11-19T12:13:53;16.4;62.1
78571;SHT31;67861;51.966;5.672;2023-11-19T12:16:28;16.4;61.6
78571;SHT31;67861;51.966;5.672;2023-11-19T12:19:04;16.4;61.0
78571;SHT31;67861;51.966;5.672;2023-11-19T12:21:34;16.4;61.0
78571;SHT31;67861;51.966;5.672;2023-11-19T12:24:06;16.4;61.5
78571;SHT31;67861;51.966;5.672;2023-11-19T12:26:36;16.4;61.7
78571;SHT31;67861;51.966;5.672;2023-11-19T12:29:06;16.4;61.5
78571;SHT31;67861;51.966;5.672;2023-11-19T12:31:35;16.5;62.1
78571;SHT31;67861;51.966;5.672;2023-11-19T12:34:07;16.5;61.6
78571;SHT31;67861;51.966;5.672;2023-11-19T12:36:38;16.5;61.7
78571;SHT31;67861;51.966;5.672;2023-11-19T12:39:07;16.5;61.5
78571;SHT31;67861;51.966;5.672;2023-11-19T12:41:50;16.5;61.2
78571;SHT31;67861;51.966;5.672;2023-11-19T12:44:19;16.6;60.8
78571;SHT31;67861;51.966;5.672;2023-11-19T12:47:01;16.6;61.1
78571;SHT31;67861;51.966;5.672;2023-11-19T12:49:30;16.6;60.3
78571;SHT31;67861;51.966;5.672;2023-11-19T12:51:59;16.6;61.0
78571;SHT31;67861;51.966;5.672;2023-11-19T12:54:35;16.6;60.4
78571;SHT31;67861;51.966;5.672;2023-11-19T12:57:05;16.6;61.0
78571;SHT31;67861;51.966;5.672;2023-11-19T12:59:34;16.6;61.1
78571;SHT31;67861;51.966;5.672;2023-11-19T13:02:03;16.7;60.3
78571;SHT31;67861;51.966;5.672;2023-11-19T13:04:33;16.7;60.1
78571;SHT31;67861;51.966;5.672;2023-11-19T13:07:02;16.7;60.6
78571;SHT31;67861;51.966;5.672;2023-11-19T13:09:32;16.7;60.8
78571;SHT31;67861;51.966;5.672;2023-11-19T13:12:14;16.7;60.8
78571;SHT31;67861;51.966;5.672;2023-11-19T13:14:43;16.7;60.5
78571;SHT31;67861;51.966;5.672;2023-11-19T13:17:16;16.7;60.1
78571;SHT31;67861;51.966;5.672;2023-11-19T13:19:47;16.7;60.2
78571;SHT31;67861;51.966;5.672;2023-11-19T13:22:17;16.7;60.5
78571;SHT31;67861;51.966;5.672;2023-11-19T13:24:45;16.7;60.4
78571;SHT31;67861;51.966;5.672;2023-11-19T13:27:15;16.7;61.0
78571;SHT31;67861;51.966;5.672;2023-11-19T13:29:43;16.7;60.7
78571;SHT31;67861;51.966;5.672;2023-11-19T13:32:11;16.7;61.0
78571;SHT31;67861;51.966;5.672;2023-11-19T13:34:40;16.7;60.6
78571;SHT31;67861;51.966;5.672;2023-11-19T13:37:08;16.7;60.8
78571;SHT31;67861;51.966;5.672;2023-11-19T13:39:41;16.7;61.2
78571;SHT31;67861;51.966;5.672;2023-11-19T13:42:09;16.7;61.5
78571;SHT31;67861;51.966;5.672;2023-11-19T13:44:38;16.7;60.8
78571;SHT31;67861;51.966;5.672;2023-11-19T13:47:09;16.7;61.3
78571;SHT31;67861;51.966;5.672;2023-11-19T13:49:37;16.7;61.5
78571;SHT31;67861;51.966;5.672;2023-11-19T13:52:06;16.7;61.7
78571;SHT31;67861;51.966;5.672;2023-11-19T13:54:34;16.6;61.8
78571;SHT31;67861;51.966;5.672;2023-11-19T13:57:04;16.6;62.1
78571;SHT31;67861;51.966;5.672;2023-11-19T13:59:33;16.6;62.4
78571;SHT31;67861;51.966;5.672;2023-11-19T14:02:01;16.6;63.1
78571;SHT31;67861;51.966;5.672;2023-11-19T14:04:29;16.5;63.1
78571;SHT31;67861;51.966;5.672;2023-11-19T14:06:58;16.5;63.5
78571;SHT31;67861;51.966;5.672;2023-11-19T14:09:26;16.5;63.6
78571;SHT31;67861;51.966;5.672;2023-11-19T14:11:55;16.5;63.4
78571;SHT31;67861;51.966;5.672;2023-11-19T14:14:25;16.5;63.4
78571;SHT31;67861;51.966;5.672;2023-11-19T14:16:54;16.4;63.2
78571;SHT31;67861;51.966;5.672;2023-11-19T14:19:24;16.4;63.4
78571;SHT31;67861;51.966;5.672;2023-11-19T14:21:53;16.4;63.6
78571;SHT31;67861;51.966;5.672;2023-11-19T14:24:21;16.4;62.7
78571;SHT31;67861;51.966;5.672;2023-11-19T14:26:52;16.4;62.6
78571;SHT31;67861;51.966;5.672;2023-11-19T14:29:24;16.4;62.7
78571;SHT31;67861;51.966;5.672;2023-11-19T14:31:54;16.4;62.9
78571;SHT31;67861;51.966;5.672;2023-11-19T14:34:23;16.4;62.2
78571;SHT31;67861;51.966;5.672;2023-11-19T14:36:52;16.4;62.0
78571;SHT31;67861;51.966;5.672;2023-11-19T14:39:22;16.4;62.2
78571;SHT31;67861;51.966;5.672;2023-11-19T14:41:50;16.3;62.0
78571;SHT31;67861;51.966;5.672;2023-11-19T14:44:20;16.3;61.9
78571;SHT31;67861;51.966;5.672;2023-11-19T14:46:49;16.3;62.0
78571;SHT31;67861;51.966;5.672;2023-11-19T14:49:17;16.3;62.0
78571;SHT31;67861;51.966;5.672;2023-11-19T14:51:46;16.2;62.0
78571;SHT31;67861;51.966;5.672;2023-11-19T14:54:14;16.2;62.3
78571;SHT31;67861;51.966;5.672;2023-11-19T14:56:43;16.2;62.4
78571;SHT31;67861;51.966;5.672;2023-11-19T14:59:14;16.1;62.3
78571;SHT31;67861;51.966;5.672;2023-11-19T15:01:44;16.1;62.6
78571;SHT31;67861;51.966;5.672;2023-11-19T15:04:13;16.1;62.8
78571;SHT31;67861;51.966;5.672;2023-11-19T15:06:42;16.1;62.6
78571;SHT31;67861;51.966;5.672;2023-11-19T15:09:10;16.0;62.9
78571;SHT31;67861;51.966;5.672;2023-11-19T15:11:42;16.0;62.9
78571;SHT31;67861;51.966;5.672;2023-11-19T15:14:14;16.0;63.1
78571;SHT31;67861;51.966;5.672;2023-11-19T15:16:45;16.0;63.2
78571;SHT31;67861;51.966;5.672;2023-11-19T15:19:17;15.9;63.2
78571;SHT31;67861;51.966;5.672;2023-11-19T15:21:48;15.9;63.1
78571;SHT31;67861;51.966;5.672;2023-11-19T15:24:18;15.9;63.1
78571;SHT31;67861;51.966;5.672;2023-11-19T15:26:46;15.9;63.2
78571;SHT31;67861;51.966;5.672;2023-11-19T15:29:15;15.9;63.1
78571;SHT31;67861;51.966;5.672;2023-11-19T15:31:44;15.9;63.5
78571;SHT31;67861;51.966;5.672;2023-11-19T15:34:12;15.9;63.6
78571;SHT31;67861;51.966;5.672;2023-11-19T15:36:40;15.8;63.6
78571;SHT31;67861;51.966;5.672;2023-11-19T15:39:09;15.8;63.6
78571;SHT31;67861;51.966;5.672;2023-11-19T15:41:39;15.8;63.7
78571;SHT31;67861;51.966;5.672;2023-11-19T15:44:08;15.8;63.8
78571;SHT31;67861;51.966;5.672;2023-11-19T15:46:40;15.8;63.9
78571;SHT31;67861;51.966;5.672;2023-11-19T15:49:08;15.8;63.9
78571;SHT31;67861;51.966;5.672;2023-11-19T15:51:37;15.7;63.9
78571;SHT31;67861;51.966;5.672;2023-11-19T15:54:05;15.7;64.1
78571;SHT31;67861;51.966;5.672;2023-11-19T15:56:34;15.7;64.2
78571;SHT31;67861;51.966;5.672;2023-11-19T15:59:02;15.7;64.4
78571;SHT31;67861;51.966;5.672;2023-11-19T16:01:31;15.7;64.6
78571;SHT31;67861;51.966;5.672;2023-11-19T16:03:59;15.7;64.8
78571;SHT31;67861;51.966;5.672;2023-11-19T16:06:28;15.6;64.9
78571;SHT31;67861;51.966;5.672;2023-11-19T16:08:56;15.6;64.9
78571;SHT31;67861;51.966;5.672;2023-11-19T16:11:26;15.6;65.1
78571;SHT31;67861;51.966;5.672;2023-11-19T16:13:54;15.6;64.9
78571;SHT31;67861;51.966;5.672;2023-11-19T16:16:23;15.6;65.0
78571;SHT31;67861;51.966;5.672;2023-11-19T16:18:53;15.6;64.8
78571;SHT31;67861;51.966;5.672;2023-11-19T16:21:22;15.5;64.8